sensor_id;sensor_type;location;lat;lon;timestamp;temperature;humidity
44775;DHT22;31340;51.402;0.016;2022-12-18T00:01:24;2.40;99.90
44775;DHT22;31340;51.402;0.016;2022-12-18T00:03:54;2.40;99.90
44775;DHT22;31340;51.402;0.016;2022-12-18T00:06:26;2.40;99.90
44775;DHT22;31340;51.402;0.016;2022-12-18T00:08:55;2.50;99.90
44775;DHT22;31340;51.402;0.016;2022-12-18T00:11:26;2.40;99.90
44775;DHT22;31340;51.402;0.016;2022-12-18T00:13:56;2.40;99.90
44775;DHT22;31340;51.402;0.016;2022-12-18T00:16:25;2.40;99.90
44775;DHT22;31340;51.402;0.016;2022-12-18T00:18:55;2.50;99.90
44775;DHT22;31340;51.402;0.016;2022-12-18T00:21:26;2.50;99.90
44775;DHT22;31340;51.402;0.016;2022-12-18T00:23:54;2.50;99.90
44775;DHT22;31340;51.402;0.016;2022-12-18T00:26:24;2.50;99.90
44775;DHT22;31340;51.402;0.016;2022-12-18T00:29:07;2.50;99.90
44775;DHT22;31340;51.402;0.016;2022-12-18T00:31:37;2.50;99.90
44775;DHT22;31340;51.402;0.016;2022-12-18T00:34:04;2.50;99.90
44775;DHT22;31340;51.402;0.016;2022-12-18T00:36:33;2.40;99.90
44775;DHT22;31340;51.402;0.016;2022-12-18T00:39:03;2.50;99.90
44775;DHT22;31340;51.402;0.016;2022-12-18T00:41:31;2.50;99.90
44775;DHT22;31340;51.402;0.016;2022-12-18T00:44:18;2.40;99.90
44775;DHT22;31340;51.402;0.016;2022-12-18T00:46:47;2.40;99.90
44775;DHT22;31340;51.402;0.016;2022-12-18T00:49:17;2.40;99.90
44775;DHT22;31340;51.402;0.016;2022-12-18T00:51:46;2.40;99.90
44775;DHT22;31340;51.402;0.016;2022-12-18T00:54:15;2.40;99.90
44775;DHT22;31340;51.402;0.016;2022-12-18T00:56:44;2.40;99.90
44775;DHT22;31340;51.402;0.016;2022-12-18T00:59:16;2.40;99.90
44775;DHT22;31340;51.402;0.016;2022-12-18T01:01:45;2.40;99.90
44775;DHT22;31340;51.402;0.016;2022-12-18T01:04:14;2.30;99.90
44775;DHT22;31340;51.402;0.016;2022-12-18T01:06:45;2.30;99.90
44775;DHT22;31340;51.402;0.016;2022-12-18T01:09:13;2.30;99.90
44775;DHT22;31340;51.402;0.016;2022-12-18T01:11:41;2.30;99.90
44775;DHT22;31340;51.402;0.016;2022-12-18T01:14:10;2.30;99.90
44775;DHT22;31340;51.402;0.016;2022-12-18T01:16:38;2.30;99.90
44775;DHT22;31340;51.402;0.016;2022-12-18T01:19:06;2.30;99.90
44775;DHT22;31340;51.402;0.016;2022-12-18T01:21:34;2.20;99.90
44775;DHT22;31340;51.402;0.016;2022-12-18T01:24:04;2.20;99.90
44775;DHT22;31340;51.402;0.016;2022-12-18T01:26:33;2.20;99.90
44775;DHT22;31340;51.402;0.016;2022-12-18T01:29:01;2.20;99.90
44775;DHT22;31340;51.402;0.016;2022-12-18T01:31:31;2.20;99.90
44775;DHT22;31340;51.402;0.016;2022-12-18T01:34:04;2.20;99.90
44775;DHT22;31340;51.402;0.016;2022-12-18T01:36:37;2.10;99.90
44775;DHT22;31340;51.402;0.016;2022-12-18T01:39:10;2.10;99.90
44775;DHT22;31340;51.402;0.016;2022-12-18T01:41:42;2.10;99.90
44775;DHT22;31340;51.402;0.016;2022-12-18T01:52:47;2.00;99.90
44775;DHT22;31340;51.402;0.016;2022-12-18T01:55:18;2.00;99.90
44775;DHT22;31340;51.402;0.016;2022-12-18T01:57:46;1.90;99.90
44775;DHT22;31340;51.402;0.016;2022-12-18T02:00:17;1.90;99.90
44775;DHT22;31340;51.402;0.016;2022-12-18T02:02:46;1.90;99.90
44775;DHT22;31340;51.402;0.016;2022-12-18T02:05:18;1.90;99.90
44775;DHT22;31340;51.402;0.016;2022-12-18T02:07:50;1.90;99.90
44775;DHT22;31340;51.402;0.016;2022-12-18T02:19:16;1.80;99.90
44775;DHT22;31340;51.402;0.016;2022-12-18T02:22:03;1.80;99.90
44775;DHT22;31340;51.402;0.016;2022-12-18T02:25:00;1.80;99.90
44775;DHT22;31340;51.402;0.016;2022-12-18T02:27:33;1.80;99.90
44775;DHT22;31340;51.402;0.016;2022-12-18T02:30:03;1.80;99.90
44775;DHT22;31340;51.402;0.016;2022-12-18T02:32:42;1.80;99.90
44775;DHT22;31340;51.402;0.016;2022-12-18T02:35:16;1.80;99.90
44775;DHT22;31340;51.402;0.016;2022-12-18T02:37:47;1.80;99.90
44775;DHT22;31340;51.402;0.016;2022-12-18T02:40:15;1.80;99.90
44775;DHT22;31340;51.402;0.016;2022-12-18T02:42:44;1.80;99.90
44775;DHT22;31340;51.402;0.016;2022-12-18T02:45:15;1.80;99.90
44775;DHT22;31340;51.402;0.016;2022-12-18T02:47:46;1.80;99.90
44775;DHT22;31340;51.402;0.016;2022-12-18T02:50:31;1.80;99.90
44775;DHT22;31340;51.402;0.016;2022-12-18T02:53:17;1.80;99.90
44775;DHT22;31340;51.402;0.016;2022-12-18T02:56:08;1.80;99.90
44775;DHT22;31340;51.402;0.016;2022-12-18T03:01:36;1.80;99.90
44775;DHT22;31340;51.402;0.016;2022-12-18T03:07:02;1.80;99.90
44775;DHT22;31340;51.402;0.016;2022-12-18T03:09:36;1.80;99.90
44775;DHT22;31340;51.402;0.016;2022-12-18T03:12:17;1.80;99.90
44775;DHT22;31340;51.402;0.016;2022-12-18T03:17:32;1.80;99.90
44775;DHT22;31340;51.402;0.016;2022-12-18T03:20:10;1.80;99.90
44775;DHT22;31340;51.402;0.016;2022-12-18T03:22:42;1.80;99.90
44775;DHT22;31340;51.402;0.016;2022-12-18T03:25:16;1.80;99.90
44775;DHT22;31340;51.402;0.016;2022-12-18T03:27:51;1.80;99.90
44775;DHT22;31340;51.402;0.016;2022-12-18T03:30:21;1.80;99.90
44775;DHT22;31340;51.402;0.016;2022-12-18T03:35:35;1.80;99.90
44775;DHT22;31340;51.402;0.016;2022-12-18T03:38:05;1.80;99.90
44775;DHT22;31340;51.402;0.016;2022-12-18T03:43:19;1.80;99.90
44775;DHT22;31340;51.402;0.016;2022-12-18T03:45:54;1.80;99.90
44775;DHT22;31340;51.402;0.016;2022-12-18T03:48:31;1.80;99.90
44775;DHT22;31340;51.402;0.016;2022-12-18T03:51:23;1.80;99.90
44775;DHT22;31340;51.402;0.016;2022-12-18T03:53:56;1.80;99.90
44775;DHT22;31340;51.402;0.016;2022-12-18T03:56:32;1.80;99.90
44775;DHT22;31340;51.402;0.016;2022-12-18T03:59:03;1.80;99.90
44775;DHT22;31340;51.402;0.016;2022-12-18T04:01:36;1.80;99.90
44775;DHT22;31340;51.402;0.016;2022-12-18T04:04:06;1.80;99.90
44775;DHT22;31340;51.402;0.016;2022-12-18T04:06:38;1.80;99.90
44775;DHT22;31340;51.402;0.016;2022-12-18T04:09:09;1.80;99.90
44775;DHT22;31340;51.402;0.016;2022-12-18T04:11:42;1.80;99.90
44775;DHT22;31340;51.402;0.016;2022-12-18T04:14:13;1.80;99.90
44775;DHT22;31340;51.402;0.016;2022-12-18T04:16:45;1.80;99.90
44775;DHT22;31340;51.402;0.016;2022-12-18T04:19:16;1.80;99.90
44775;DHT22;31340;51.402;0.016;2022-12-18T04:21:46;1.80;99.90
44775;DHT22;31340;51.402;0.016;2022-12-18T04:24:14;1.90;99.90
44775;DHT22;31340;51.402;0.016;2022-12-18T04:26:51;1.80;99.90
44775;DHT22;31340;51.402;0.016;2022-12-18T04:29:24;1.80;99.90
44775;DHT22;31340;51.402;0.016;2022-12-18T04:31:52;1.80;99.90
44775;DHT22;31340;51.402;0.016;2022-12-18T04:34:20;1.90;99.90
44775;DHT22;31340;51.402;0.016;2022-12-18T04:36:51;1.90;99.90
44775;DHT22;31340;51.402;0.016;2022-12-18T04:39:21;1.90;99.90
44775;DHT22;31340;51.402;0.016;2022-12-18T04:41:50;1.90;99.90
44775;DHT22;31340;51.402;0.016;2022-12-18T04:44:18;1.90;99.90
44775;DHT22;31340;51.402;0.016;2022-12-18T04:46:46;1.90;99.90
44775;DHT22;31340;51.402;0.016;2022-12-18T04:49:13;2.00;99.90
44775;DHT22;31340;51.402;0.016;2022-12-18T04:51:41;2.00;99.90
44775;DHT22;31340;51.402;0.016;2022-12-18T04:54:09;2.00;99.90
44775;DHT22;31340;51.402;0.016;2022-12-18T04:56:36;2.00;99.90
44775;DHT22;31340;51.402;0.016;2022-12-18T04:59:04;2.10;99.90
44775;DHT22;31340;51.402;0.016;2022-12-18T05:01:32;2.10;99.90
44775;DHT22;31340;51.402;0.016;2022-12-18T05:04:02;2.10;99.90
44775;DHT22;31340;51.402;0.016;2022-12-18T05:06:30;2.10;99.90
44775;DHT22;31340;51.402;0.016;2022-12-18T05:08:58;2.10;99.90
44775;DHT22;31340;51.402;0.016;2022-12-18T05:11:25;2.10;99.90
44775;DHT22;31340;51.402;0.016;2022-12-18T05:13:53;2.20;99.90
44775;DHT22;31340;51.402;0.016;2022-12-18T05:16:23;2.20;99.90
44775;DHT22;31340;51.402;0.016;2022-12-18T05:18:51;2.20;99.90
44775;DHT22;31340;51.402;0.016;2022-12-18T05:21:18;2.30;99.90
44775;DHT22;31340;51.402;0.016;2022-12-18T05:23:46;2.30;99.90
44775;DHT22;31340;51.402;0.016;2022-12-18T05:26:17;2.30;99.90
44775;DHT22;31340;51.402;0.016;2022-12-18T05:28:45;2.30;99.90
44775;DHT22;31340;51.402;0.016;2022-12-18T05:31:13;2.30;99.90
44775;DHT22;31340;51.402;0.016;2022-12-18T05:33:41;2.40;99.90
44775;DHT22;31340;51.402;0.016;2022-12-18T05:36:10;2.40;99.90
44775;DHT22;31340;51.402;0.016;2022-12-18T05:38:38;2.40;99.90
44775;DHT22;31340;51.402;0.016;2022-12-18T05:41:06;2.40;99.90
44775;DHT22;31340;51.402;0.016;2022-12-18T05:43:36;2.40;99.90
44775;DHT22;31340;51.402;0.016;2022-12-18T05:46:11;2.50;99.90
44775;DHT22;31340;51.402;0.016;2022-12-18T05:48:40;2.50;99.90
44775;DHT22;31340;51.402;0.016;2022-12-18T05:51:10;2.50;99.90
44775;DHT22;31340;51.402;0.016;2022-12-18T05:53:38;2.50;99.90
44775;DHT22;31340;51.402;0.016;2022-12-18T05:56:10;2.50;99.90
44775;DHT22;31340;51.402;0.016;2022-12-18T05:58:38;2.50;99.90
44775;DHT22;31340;51.402;0.016;2022-12-18T06:01:12;2.50;99.90
44775;DHT22;31340;51.402;0.016;2022-12-18T06:03:40;2.50;99.90
44775;DHT22;31340;51.402;0.016;2022-12-18T06:06:18;2.50;99.90
44775;DHT22;31340;51.402;0.016;2022-12-18T06:08:46;2.50;99.90
44775;DHT22;31340;51.402;0.016;2022-12-18T06:11:17;2.50;99.90
44775;DHT22;31340;51.402;0.016;2022-12-18T06:13:45;2.50;99.90
44775;DHT22;31340;51.402;0.016;2022-12-18T06:16:13;2.50;99.90
44775;DHT22;31340;51.402;0.016;2022-12-18T06:18:41;2.50;99.90
44775;DHT22;31340;51.402;0.016;2022-12-18T06:21:08;2.60;99.90
44775;DHT22;31340;51.402;0.016;2022-12-18T06:23:36;2.60;99.90
44775;DHT22;31340;51.402;0.016;2022-12-18T06:26:09;2.60;99.90
44775;DHT22;31340;51.402;0.016;2022-12-18T06:28:37;2.60;99.90
44775;DHT22;31340;51.402;0.016;2022-12-18T06:31:05;2.60;99.90
44775;DHT22;31340;51.402;0.016;2022-12-18T06:33:33;2.60;99.90
44775;DHT22;31340;51.402;0.016;2022-12-18T06:36:04;2.60;99.90
44775;DHT22;31340;51.402;0.016;2022-12-18T06:38:34;2.60;99.90
44775;DHT22;31340;51.402;0.016;2022-12-18T06:41:08;2.70;99.90
44775;DHT22;31340;51.402;0.016;2022-12-18T06:43:36;2.70;99.90
44775;DHT22;31340;51.402;0.016;2022-12-18T06:46:05;2.70;99.90
44775;DHT22;31340;51.402;0.016;2022-12-18T06:48:33;2.70;99.90
44775;DHT22;31340;51.402;0.016;2022-12-18T06:51:01;2.70;99.90
44775;DHT22;31340;51.402;0.016;2022-12-18T06:53:29;2.70;99.90
44775;DHT22;31340;51.402;0.016;2022-12-18T06:56:01;2.70;99.90
44775;DHT22;31340;51.402;0.016;2022-12-18T06:58:37;2.70;99.90
44775;DHT22;31340;51.402;0.016;2022-12-18T07:01:06;2.70;99.90
44775;DHT22;31340;51.402;0.016;2022-12-18T07:03:34;2.70;99.90
44775;DHT22;31340;51.402;0.016;2022-12-18T07:06:02;2.70;99.90
44775;DHT22;31340;51.402;0.016;2022-12-18T07:08:31;2.70;99.90
44775;DHT22;31340;51.402;0.016;2022-12-18T07:10:59;2.70;99.90
44775;DHT22;31340;51.402;0.016;2022-12-18T07:13:29;2.70;99.90
44775;DHT22;31340;51.402;0.016;2022-12-18T07:16:09;2.70;99.90
44775;DHT22;31340;51.402;0.016;2022-12-18T07:18:47;2.80;99.90
44775;DHT22;31340;51.402;0.016;2022-12-18T07:21:17;2.70;99.90
44775;DHT22;31340;51.402;0.016;2022-12-18T07:23:45;2.70;99.90
44775;DHT22;31340;51.402;0.016;2022-12-18T07:26:17;2.70;99.90
44775;DHT22;31340;51.402;0.016;2022-12-18T07:28:45;2.70;99.90
44775;DHT22;31340;51.402;0.016;2022-12-18T07:31:16;2.70;99.90
44775;DHT22;31340;51.402;0.016;2022-12-18T07:33:44;2.70;99.90
44775;DHT22;31340;51.402;0.016;2022-12-18T07:36:13;2.70;99.90
44775;DHT22;31340;51.402;0.016;2022-12-18T07:38:41;2.70;99.90
44775;DHT22;31340;51.402;0.016;2022-12-18T07:41:11;2.70;99.90
44775;DHT22;31340;51.402;0.016;2022-12-18T07:43:39;2.70;99.90
44775;DHT22;31340;51.402;0.016;2022-12-18T07:46:09;2.70;99.90
44775;DHT22;31340;51.402;0.016;2022-12-18T07:48:40;2.80;99.90
44775;DHT22;31340;51.402;0.016;2022-12-18T07:51:09;2.80;99.90
44775;DHT22;31340;51.402;0.016;2022-12-18T07:53:39;2.70;99.90
44775;DHT22;31340;51.402;0.016;2022-12-18T07:56:10;2.80;99.90
44775;DHT22;31340;51.402;0.016;2022-12-18T07:58:57;2.70;99.90
44775;DHT22;31340;51.402;0.016;2022-12-18T08:01:29;2.80;99.90
44775;DHT22;31340;51.402;0.016;2022-12-18T08:03:57;2.80;99.90
44775;DHT22;31340;51.402;0.016;2022-12-18T08:06:25;2.80;99.90
44775;DHT22;31340;51.402;0.016;2022-12-18T08:08:54;2.80;99.90
44775;DHT22;31340;51.402;0.016;2022-12-18T08:11:24;2.80;99.90
44775;DHT22;31340;51.402;0.016;2022-12-18T08:13:52;2.80;99.90
44775;DHT22;31340;51.402;0.016;2022-12-18T08:16:21;2.80;99.90
44775;DHT22;31340;51.402;0.016;2022-12-18T08:18:51;2.80;99.90
44775;DHT22;31340;51.402;0.016;2022-12-18T08:21:22;2.90;99.90
44775;DHT22;31340;51.402;0.016;2022-12-18T08:23:51;2.90;99.90
44775;DHT22;31340;51.402;0.016;2022-12-18T08:26:20;2.90;99.90
44775;DHT22;31340;51.402;0.016;2022-12-18T08:28:49;2.90;99.90
44775;DHT22;31340;51.402;0.016;2022-12-18T08:31:18;3.00;99.90
44775;DHT22;31340;51.402;0.016;2022-12-18T08:33:48;3.00;99.90
44775;DHT22;31340;51.402;0.016;2022-12-18T08:36:17;3.00;99.90
44775;DHT22;31340;51.402;0.016;2022-12-18T08:38:45;3.00;99.90
44775;DHT22;31340;51.402;0.016;2022-12-18T08:41:16;3.20;99.90
44775;DHT22;31340;51.402;0.016;2022-12-18T08:43:44;3.10;99.90
44775;DHT22;31340;51.402;0.016;2022-12-18T08:46:38;3.10;99.90
44775;DHT22;31340;51.402;0.016;2022-12-18T08:49:08;3.10;99.90
44775;DHT22;31340;51.402;0.016;2022-12-18T08:51:37;3.10;99.90
44775;DHT22;31340;51.402;0.016;2022-12-18T08:54:05;3.10;99.90
44775;DHT22;31340;51.402;0.016;2022-12-18T08:56:33;3.10;99.90
44775;DHT22;31340;51.402;0.016;2022-12-18T08:59:01;3.20;99.90
44775;DHT22;31340;51.402;0.016;2022-12-18T09:01:29;3.20;99.90
44775;DHT22;31340;51.402;0.016;2022-12-18T09:03:58;3.20;99.90
44775;DHT22;31340;51.402;0.016;2022-12-18T09:06:26;3.30;99.90
44775;DHT22;31340;51.402;0.016;2022-12-18T09:08:54;3.30;99.90
44775;DHT22;31340;51.402;0.016;2022-12-18T09:11:25;3.30;99.90
44775;DHT22;31340;51.402;0.016;2022-12-18T09:13:54;3.30;99.90
44775;DHT22;31340;51.402;0.016;2022-12-18T09:16:24;3.30;99.90
44775;DHT22;31340;51.402;0.016;2022-12-18T09:18:59;3.40;99.90
44775;DHT22;31340;51.402;0.016;2022-12-18T09:21:30;3.60;99.90
44775;DHT22;31340;51.402;0.016;2022-12-18T09:23:59;3.40;99.90
44775;DHT22;31340;51.402;0.016;2022-12-18T09:26:27;3.40;99.90
44775;DHT22;31340;51.402;0.016;2022-12-18T09:28:55;3.50;99.90
44775;DHT22;31340;51.402;0.016;2022-12-18T09:31:23;3.50;99.90
44775;DHT22;31340;51.402;0.016;2022-12-18T09:33:52;3.50;99.90
44775;DHT22;31340;51.402;0.016;2022-12-18T09:36:19;3.50;99.90
44775;DHT22;31340;51.402;0.016;2022-12-18T09:38:48;3.50;99.90
44775;DHT22;31340;51.402;0.016;2022-12-18T09:43:57;3.60;99.90
44775;DHT22;31340;51.402;0.016;2022-12-18T09:46:36;3.60;99.90
44775;DHT22;31340;51.402;0.016;2022-12-18T09:49:12;3.60;99.90
44775;DHT22;31340;51.402;0.016;2022-12-18T09:51:47;3.60;99.90
44775;DHT22;31340;51.402;0.016;2022-12-18T09:54:24;3.70;99.90
44775;DHT22;31340;51.402;0.016;2022-12-18T09:56:54;3.70;99.90
44775;DHT22;31340;51.402;0.016;2022-12-18T09:59:30;3.70;99.90
44775;DHT22;31340;51.402;0.016;2022-12-18T10:01:59;3.70;99.90
44775;DHT22;31340;51.402;0.016;2022-12-18T10:04:29;3.70;99.90
44775;DHT22;31340;51.402;0.016;2022-12-18T10:07:31;3.80;99.90
44775;DHT22;31340;51.402;0.016;2022-12-18T10:10:33;3.80;99.90
44775;DHT22;31340;51.402;0.016;2022-12-18T10:13:31;3.80;99.90
44775;DHT22;31340;51.402;0.016;2022-12-18T10:16:40;3.90;99.90
44775;DHT22;31340;51.402;0.016;2022-12-18T10:25:01;3.90;99.90
44775;DHT22;31340;51.402;0.016;2022-12-18T10:27:29;3.90;99.90
44775;DHT22;31340;51.402;0.016;2022-12-18T10:30:00;3.90;99.90
44775;DHT22;31340;51.402;0.016;2022-12-18T10:32:30;4.00;99.90
44775;DHT22;31340;51.402;0.016;2022-12-18T10:34:58;4.00;99.90
44775;DHT22;31340;51.402;0.016;2022-12-18T10:37:29;4.00;99.90
44775;DHT22;31340;51.402;0.016;2022-12-18T10:42:34;4.00;99.90
44775;DHT22;31340;51.402;0.016;2022-12-18T10:45:09;4.00;99.90
44775;DHT22;31340;51.402;0.016;2022-12-18T10:47:42;4.10;99.90
44775;DHT22;31340;51.402;0.016;2022-12-18T10:50:31;4.10;99.90
44775;DHT22;31340;51.402;0.016;2022-12-18T10:53:30;4.10;99.90
44775;DHT22;31340;51.402;0.016;2022-12-18T10:56:03;4.10;99.90
44775;DHT22;31340;51.402;0.016;2022-12-18T10:58:36;4.20;99.90
44775;DHT22;31340;51.402;0.016;2022-12-18T11:01:11;4.20;99.90
44775;DHT22;31340;51.402;0.016;2022-12-18T11:03:41;4.20;99.90
44775;DHT22;31340;51.402;0.016;2022-12-18T11:06:15;4.20;99.90
44775;DHT22;31340;51.402;0.016;2022-12-18T11:08:46;4.30;99.90
44775;DHT22;31340;51.402;0.016;2022-12-18T11:11:24;4.30;99.90
44775;DHT22;31340;51.402;0.016;2022-12-18T11:14:00;4.30;99.90
44775;DHT22;31340;51.402;0.016;2022-12-18T11:16:43;4.30;99.90
44775;DHT22;31340;51.402;0.016;2022-12-18T11:19:39;4.30;99.90
44775;DHT22;31340;51.402;0.016;2022-12-18T11:28:04;4.40;99.90
44775;DHT22;31340;51.402;0.016;2022-12-18T11:30:35;4.40;99.90
44775;DHT22;31340;51.402;0.016;2022-12-18T11:33:04;4.40;99.90
44775;DHT22;31340;51.402;0.016;2022-12-18T11:35:52;4.40;99.90
44775;DHT22;31340;51.402;0.016;2022-12-18T11:44:18;4.40;99.90
44775;DHT22;31340;51.402;0.016;2022-12-18T11:46:55;4.40;99.90
44775;DHT22;31340;51.402;0.016;2022-12-18T11:49:33;4.40;99.90
44775;DHT22;31340;51.402;0.016;2022-12-18T11:52:16;4.40;99.90
44775;DHT22;31340;51.402;0.016;2022-12-18T11:54:46;4.40;99.90
44775;DHT22;31340;51.402;0.016;2022-12-18T12:00:15;4.40;99.90
44775;DHT22;31340;51.402;0.016;2022-12-18T12:11:27;4.40;99.90
44775;DHT22;31340;51.402;0.016;2022-12-18T12:14:03;4.40;99.90
44775;DHT22;31340;51.402;0.016;2022-12-18T12:25:04;4.40;99.90
44775;DHT22;31340;51.402;0.016;2022-12-18T12:30:33;4.40;99.90
44775;DHT22;31340;51.402;0.016;2022-12-18T12:36:22;4.40;99.90
44775;DHT22;31340;51.402;0.016;2022-12-18T12:38:56;4.40;99.90
44775;DHT22;31340;51.402;0.016;2022-12-18T12:41:26;4.40;99.90
44775;DHT22;31340;51.402;0.016;2022-12-18T12:44:35;4.40;99.90
44775;DHT22;31340;51.402;0.016;2022-12-18T12:47:21;4.40;99.90
44775;DHT22;31340;51.402;0.016;2022-12-18T12:49:51;4.40;99.90
44775;DHT22;31340;51.402;0.016;2022-12-18T12:52:39;4.40;99.90
44775;DHT22;31340;51.402;0.016;2022-12-18T12:55:21;4.40;99.90
44775;DHT22;31340;51.402;0.016;2022-12-18T12:57:59;4.40;99.90
44775;DHT22;31340;51.402;0.016;2022-12-18T13:00:38;4.40;99.90
44775;DHT22;31340;51.402;0.016;2022-12-18T13:03:42;4.40;99.90
44775;DHT22;31340;51.402;0.016;2022-12-18T13:09:10;4.40;99.90
44775;DHT22;31340;51.402;0.016;2022-12-18T13:11:43;4.40;99.90
44775;DHT22;31340;51.402;0.016;2022-12-18T13:14:40;4.50;99.90
44775;DHT22;31340;51.402;0.016;2022-12-18T13:17:16;4.50;99.90
44775;DHT22;31340;51.402;0.016;2022-12-18T13:19:47;4.50;99.90
44775;DHT22;31340;51.402;0.016;2022-12-18T13:22:36;4.50;99.90
44775;DHT22;31340;51.402;0.016;2022-12-18T13:28:11;4.50;99.90
44775;DHT22;31340;51.402;0.016;2022-12-18T13:30:41;4.50;99.90
44775;DHT22;31340;51.402;0.016;2022-12-18T13:41:04;4.60;99.90
44775;DHT22;31340;51.402;0.016;2022-12-18T13:43:49;4.50;99.90
44775;DHT22;31340;51.402;0.016;2022-12-18T13:46:30;4.50;99.90
44775;DHT22;31340;51.402;0.016;2022-12-18T13:52:00;4.60;99.90
44775;DHT22;31340;51.402;0.016;2022-12-18T13:54:34;4.60;99.90
44775;DHT22;31340;51.402;0.016;2022-12-18T13:57:04;4.60;99.90
44775;DHT22;31340;51.402;0.016;2022-12-18T13:59:38;4.60;99.90
44775;DHT22;31340;51.402;0.016;2022-12-18T14:02:17;4.60;99.90
44775;DHT22;31340;51.402;0.016;2022-12-18T14:04:46;4.60;99.90
44775;DHT22;31340;51.402;0.016;2022-12-18T14:09:49;4.70;99.90
44775;DHT22;31340;51.402;0.016;2022-12-18T14:12:24;4.60;99.90
44775;DHT22;31340;51.402;0.016;2022-12-18T14:15:24;4.70;99.90
44775;DHT22;31340;51.402;0.016;2022-12-18T14:20:36;4.70;99.90
44775;DHT22;31340;51.402;0.016;2022-12-18T14:25:52;4.70;99.90
44775;DHT22;31340;51.402;0.016;2022-12-18T14:28:19;4.70;99.90
44775;DHT22;31340;51.402;0.016;2022-12-18T14:30:49;4.70;99.90
44775;DHT22;31340;51.402;0.016;2022-12-18T14:33:22;4.70;99.90
44775;DHT22;31340;51.402;0.016;2022-12-18T14:38:35;4.70;99.90
44775;DHT22;31340;51.402;0.016;2022-12-18T14:41:10;4.80;99.90
44775;DHT22;31340;51.402;0.016;2022-12-18T14:43:40;4.80;99.90
44775;DHT22;31340;51.402;0.016;2022-12-18T14:48:55;4.80;99.90
44775;DHT22;31340;51.402;0.016;2022-12-18T14:51:28;4.90;99.90
44775;DHT22;31340;51.402;0.016;2022-12-18T14:54:01;4.90;99.90
44775;DHT22;31340;51.402;0.016;2022-12-18T14:56:30;4.90;99.90
44775;DHT22;31340;51.402;0.016;2022-12-18T14:59:04;4.90;99.90
44775;DHT22;31340;51.402;0.016;2022-12-18T15:01:38;4.90;99.90
44775;DHT22;31340;51.402;0.016;2022-12-18T15:09:32;5.00;99.90
44775;DHT22;31340;51.402;0.016;2022-12-18T15:12:01;5.00;99.90
44775;DHT22;31340;51.402;0.016;2022-12-18T15:14:39;5.00;99.90
44775;DHT22;31340;51.402;0.016;2022-12-18T15:17:20;5.00;99.90
44775;DHT22;31340;51.402;0.016;2022-12-18T15:19:52;5.10;99.90
44775;DHT22;31340;51.402;0.016;2022-12-18T15:22:33;5.80;99.90
44775;DHT22;31340;51.402;0.016;2022-12-18T15:25:03;5.10;99.90
44775;DHT22;31340;51.402;0.016;2022-12-18T15:27:35;5.10;99.90
44775;DHT22;31340;51.402;0.016;2022-12-18T15:32:36;5.10;99.90
44775;DHT22;31340;51.402;0.016;2022-12-18T15:37:38;5.20;99.90
44775;DHT22;31340;51.402;0.016;2022-12-18T15:40:17;5.20;99.90
44775;DHT22;31340;51.402;0.016;2022-12-18T15:42:46;5.20;99.90
44775;DHT22;31340;51.402;0.016;2022-12-18T15:45:33;5.20;99.90
44775;DHT22;31340;51.402;0.016;2022-12-18T15:48:00;5.30;99.90
44775;DHT22;31340;51.402;0.016;2022-12-18T15:50:31;5.30;99.90
44775;DHT22;31340;51.402;0.016;2022-12-18T15:52:58;5.30;99.90
44775;DHT22;31340;51.402;0.016;2022-12-18T15:55:26;5.30;99.90
44775;DHT22;31340;51.402;0.016;2022-12-18T15:58:12;5.40;99.90
44775;DHT22;31340;51.402;0.016;2022-12-18T16:00:42;5.40;99.90
44775;DHT22;31340;51.402;0.016;2022-12-18T16:03:11;5.40;99.90
44775;DHT22;31340;51.402;0.016;2022-12-18T16:05:39;5.40;99.90
44775;DHT22;31340;51.402;0.016;2022-12-18T16:08:06;5.50;99.90
44775;DHT22;31340;51.402;0.016;2022-12-18T16:10:34;5.50;99.90
44775;DHT22;31340;51.402;0.016;2022-12-18T16:13:02;5.60;99.90
44775;DHT22;31340;51.402;0.016;2022-12-18T16:15:29;5.60;99.90
44775;DHT22;31340;51.402;0.016;2022-12-18T16:17:57;5.60;99.90
44775;DHT22;31340;51.402;0.016;2022-12-18T16:20:24;5.60;99.90
44775;DHT22;31340;51.402;0.016;2022-12-18T16:22:52;5.60;99.90
44775;DHT22;31340;51.402;0.016;2022-12-18T16:25:22;5.70;99.90
44775;DHT22;31340;51.402;0.016;2022-12-18T16:27:51;5.70;99.90
44775;DHT22;31340;51.402;0.016;2022-12-18T16:30:21;5.80;99.90
44775;DHT22;31340;51.402;0.016;2022-12-18T16:32:48;5.80;99.90
44775;DHT22;31340;51.402;0.016;2022-12-18T16:35:17;5.80;99.90
44775;DHT22;31340;51.402;0.016;2022-12-18T16:37:45;5.90;99.90
44775;DHT22;31340;51.402;0.016;2022-12-18T16:40:15;5.90;99.90
44775;DHT22;31340;51.402;0.016;2022-12-18T16:42:44;5.90;99.90
44775;DHT22;31340;51.402;0.016;2022-12-18T16:45:15;6.00;99.90
44775;DHT22;31340;51.402;0.016;2022-12-18T16:47:43;6.00;99.90
44775;DHT22;31340;51.402;0.016;2022-12-18T16:50:10;6.10;99.90
44775;DHT22;31340;51.402;0.016;2022-12-18T16:52:38;6.10;99.90
44775;DHT22;31340;51.402;0.016;2022-12-18T16:55:07;6.20;99.90
44775;DHT22;31340;51.402;0.016;2022-12-18T16:57:35;6.20;99.90
44775;DHT22;31340;51.402;0.016;2022-12-18T17:00:03;6.30;99.90
44775;DHT22;31340;51.402;0.016;2022-12-18T17:02:32;6.30;99.90
44775;DHT22;31340;51.402;0.016;2022-12-18T17:05:00;6.30;99.90
44775;DHT22;31340;51.402;0.016;2022-12-18T17:07:28;6.30;99.90
44775;DHT22;31340;51.402;0.016;2022-12-18T17:09:55;6.40;99.90
44775;DHT22;31340;51.402;0.016;2022-12-18T17:12:23;6.50;99.90
44775;DHT22;31340;51.402;0.016;2022-12-18T17:14:51;6.50;99.90
44775;DHT22;31340;51.402;0.016;2022-12-18T17:17:19;6.50;99.90
44775;DHT22;31340;51.402;0.016;2022-12-18T17:19:50;6.60;99.90
44775;DHT22;31340;51.402;0.016;2022-12-18T17:22:19;6.60;99.90
44775;DHT22;31340;51.402;0.016;2022-12-18T17:24:47;6.60;99.90
44775;DHT22;31340;51.402;0.016;2022-12-18T17:27:14;6.70;99.90
44775;DHT22;31340;51.402;0.016;2022-12-18T17:29:42;6.70;99.90
44775;DHT22;31340;51.402;0.016;2022-12-18T17:32:15;6.80;99.90
44775;DHT22;31340;51.402;0.016;2022-12-18T17:34:42;6.80;99.90
44775;DHT22;31340;51.402;0.016;2022-12-18T17:37:10;6.80;99.90
44775;DHT22;31340;51.402;0.016;2022-12-18T17:39:38;6.90;99.90
44775;DHT22;31340;51.402;0.016;2022-12-18T17:42:06;6.90;99.90
44775;DHT22;31340;51.402;0.016;2022-12-18T17:44:42;7.00;99.90
44775;DHT22;31340;51.402;0.016;2022-12-18T17:47:11;7.00;99.90
44775;DHT22;31340;51.402;0.016;2022-12-18T17:49:39;7.10;99.90
44775;DHT22;31340;51.402;0.016;2022-12-18T17:52:07;7.10;99.90
44775;DHT22;31340;51.402;0.016;2022-12-18T17:54:36;7.10;99.90
44775;DHT22;31340;51.402;0.016;2022-12-18T17:57:06;7.10;99.90
44775;DHT22;31340;51.402;0.016;2022-12-18T17:59:34;7.10;99.90
44775;DHT22;31340;51.402;0.016;2022-12-18T18:02:01;7.10;99.90
44775;DHT22;31340;51.402;0.016;2022-12-18T18:04:29;7.20;99.90
44775;DHT22;31340;51.402;0.016;2022-12-18T18:06:56;7.20;99.90
44775;DHT22;31340;51.402;0.016;2022-12-18T18:09:24;7.20;99.90
44775;DHT22;31340;51.402;0.016;2022-12-18T18:11:52;7.20;99.90
44775;DHT22;31340;51.402;0.016;2022-12-18T18:14:38;7.30;99.90
44775;DHT22;31340;51.402;0.016;2022-12-18T18:17:06;7.30;99.90